Sunday, November 18, 2018, 2:29 PM GMT
Back to Local

CYYG, Charlottetown, P. E. I.

Location: , , Canada Lat: 46.283
Local Time: 2:29 PM GMT (14:29 GMT) Lon: -63.133
Time Zone: GMT Elev: 157 ft

Show me the last for .
Show Coded

Time T Td Feel RH Dir Speed Gust Alt SLP Vis Weather Sky Remarks
2018-11-18 14:00 25 18 11 73 280° 10 17 30.22 30.23 15 FEW017 None
2018-11-18 13:00 25 18 11 73 280° 9 17 30.20 30.21 15 FEW016 None
2018-11-18 12:00 21 16 11 79 270° 9 - 30.18 30.19 15 FEW015 Pressure rising rapidly
2018-11-18 11:00 23 18 9 79 280° 10 17 30.13 30.14 15 FEW015 None
2018-11-18 10:00 25 19 15 79 300° 9 - 30.09 30.10 15 CLR None
2018-11-18 09:00 27 21 17 79 280° 10 - 30.06 30.08 15 CLR None
2018-11-18 08:00 27 23 17 86 280° 10 - 30.03 30.04 15 CLR None
2018-11-18 07:00 27 23 18 86 260° 8 - 30.01 30.03 15 CLR None
2018-11-18 06:00 27 23 18 86 260° 8 - 30.00 30.01 15 CLR None
2018-11-18 05:00 27 23 18 86 260° 8 - 29.99 30.00 15 CLR None
2018-11-18 04:00 27 23 18 86 250° 8 - 29.97 29.98 15 CLR None
2018-11-18 03:00 27 23 18 86 250° 8 - 29.95 29.96 15 FEW026 None
2018-11-18 02:00 27 23 18 86 240° 8 - 29.95 29.96 15 FEW026 None
2018-11-18 01:00 27 21 19 79 260° 7 - 29.94 29.95 15 SCT026 None
2018-11-18 00:33 27 21 19 79 270° 7 - 29.93 29.94 15 SCT026 None
2018-11-18 00:00 27 21 18 79 270° 8 - 29.92 29.93 15 -SHSN SCT025 None
2018-11-17 23:00 28 23 15 79 260° 10 20 29.90 29.91 12 -SHSN OVC021 None
2018-11-17 22:00 28 23 21 79 270° 7 - 29.87 29.88 12 -SHSN OVC022 None
2018-11-17 21:00 28 23 18 79 280° 12 - 29.84 29.85 12 -SHSN OVC025 None
2018-11-17 20:00 28 25 20 86 260° 9 - 29.82 29.83 12 -SHSN OVC014 None
2018-11-17 19:00 30 25 20 80 270° 13 - 29.79 29.80 15 -SHSN OVC017 None
2018-11-17 18:00 30 27 18 86 260° 9 18 29.78 29.79 12 -SHSN OVC015 None
2018-11-17 17:00 30 25 18 80 280° 13 18 29.75 29.76 15 -SHSN BKN014 None
2018-11-17 16:00 32 28 24 86 280° 10 - 29.73 29.74 8 -SHSN BKN018 None
2018-11-17 15:00 30 27 17 86 280° 12 21 29.73 29.74 14 -SHSN OVC018 None

Support USWX by starting your Amazon purchase here.